createdAt,value
2018-01-25T00:00:36.109Z,98878.06
2018-01-25T00:03:03.575Z,98876.93
2018-01-25T00:05:30.961Z,98879.23
2018-01-25T00:07:58.368Z,98877.58
2018-01-25T00:10:26.183Z,98873.36
2018-01-25T00:12:54.252Z,98865.37
2018-01-25T00:15:21.736Z,98869.80
2018-01-25T00:17:49.144Z,98876.02
2018-01-25T00:20:16.544Z,98876.66
2018-01-25T00:22:44.015Z,98882.44
2018-01-25T00:25:11.416Z,98876.05
2018-01-25T00:27:38.899Z,98869.69
2018-01-25T00:30:06.298Z,98876.36
2018-01-25T00:32:33.687Z,98872.16
2018-01-25T00:35:01.109Z,98867.91
2018-01-25T00:37:28.500Z,98871.47
2018-01-25T00:39:55.928Z,98871.93
2018-01-25T00:42:23.317Z,98870.12
2018-01-25T00:44:50.728Z,98859.75
2018-01-25T00:47:18.196Z,98862.03
2018-01-25T00:49:45.597Z,98854.02
2018-01-25T00:52:12.992Z,98859.14
2018-01-25T00:54:40.407Z,98861.83
2018-01-25T00:57:08.332Z,98863.48
2018-01-25T00:59:35.732Z,98864.87
2018-01-25T01:02:03.137Z,98857.01
2018-01-25T01:04:30.546Z,98858.63
2018-01-25T01:06:57.949Z,98857.30
2018-01-25T01:09:25.359Z,98857.43
2018-01-25T01:11:52.744Z,98857.61
2018-01-25T01:14:20.153Z,98859.81
2018-01-25T01:16:48.385Z,98852.48
2018-01-25T01:19:15.795Z,98853.84
2018-01-25T01:21:43.205Z,98846.96
2018-01-25T01:24:10.617Z,98857.30
2018-01-25T01:26:38.018Z,98846.70
2018-01-25T01:29:05.424Z,98848.65
2018-01-25T01:31:32.816Z,98845.58
2018-01-25T01:34:00.223Z,98850.22
2018-01-25T01:36:27.627Z,98842.99
2018-01-25T01:38:55.020Z,98844.54
2018-01-25T01:41:22.433Z,98850.91
2018-01-25T01:43:49.835Z,98848.53
2018-01-25T01:46:17.252Z,98838.83
2018-01-25T01:48:44.632Z,98839.58
2018-01-25T01:51:12.036Z,98845.97
2018-01-25T01:53:39.442Z,98831.48
2018-01-25T01:56:06.887Z,98841.19
2018-01-25T01:58:34.284Z,98830.78
2018-01-25T02:01:01.685Z,98832.63
2018-01-25T02:03:29.163Z,98841.17
2018-01-25T02:05:56.708Z,98839.51
2018-01-25T02:08:24.104Z,98837.00
2018-01-25T02:10:51.518Z,98840.66
2018-01-25T02:13:18.971Z,98835.92
2018-01-25T02:15:46.368Z,98822.81
2018-01-25T02:18:13.770Z,98836.56
2018-01-25T02:20:41.183Z,98834.33
2018-01-25T02:23:08.582Z,98823.77
2018-01-25T02:25:35.980Z,98821.19
2018-01-25T02:28:03.381Z,98822.77
2018-01-25T02:30:30.829Z,98812.37
2018-01-25T02:32:58.236Z,98810.97
2018-01-25T02:35:25.655Z,98816.16
2018-01-25T02:37:53.054Z,98803.36
2018-01-25T02:40:20.464Z,98811.20
2018-01-25T02:42:48.076Z,98811.63
2018-01-25T02:45:15.485Z,98810.53
2018-01-25T02:47:42.881Z,98812.23
2018-01-25T02:50:10.279Z,98810.21
2018-01-25T02:52:37.687Z,98815.61
2018-01-25T02:55:05.093Z,98816.46
2018-01-25T02:57:32.497Z,98819.87
2018-01-25T03:00:00.416Z,98817.98
2018-01-25T03:02:27.817Z,98814.45
2018-01-25T03:04:55.260Z,98821.30
2018-01-25T03:07:22.896Z,98818.24
2018-01-25T03:09:50.304Z,98815.58
2018-01-25T03:12:17.714Z,98826.50
2018-01-25T03:14:45.116Z,98826.18
2018-01-25T03:17:12.806Z,98828.66
2018-01-25T03:19:40.202Z,98828.36
2018-01-25T03:22:07.627Z,98826.77
2018-01-25T03:24:35.017Z,98822.44
2018-01-25T03:27:02.604Z,98829.04
2018-01-25T03:29:30.015Z,98828.03
2018-01-25T03:31:57.416Z,98827.98
2018-01-25T03:34:24.826Z,98823.88
2018-01-25T03:36:52.259Z,98820.08
2018-01-25T03:39:19.654Z,98818.39
2018-01-25T03:41:47.069Z,98825.66
2018-01-25T03:44:14.477Z,98823.61
2018-01-25T03:46:42.041Z,98821.08
2018-01-25T03:49:10.036Z,98813.39
2018-01-25T03:51:37.538Z,98811.53
2018-01-25T03:54:04.941Z,98808.87
2018-01-25T03:59:06.083Z,98808.16
2018-01-25T04:01:33.500Z,98803.39
2018-01-25T04:04:00.898Z,98800.45
2018-01-25T04:06:28.296Z,98802.79
2018-01-25T04:08:56.444Z,98800.71
2018-01-25T04:11:23.854Z,98806.44
2018-01-25T04:13:51.249Z,98798.89
2018-01-25T04:16:18.663Z,98795.80
2018-01-25T04:18:46.064Z,98790.43
2018-01-25T04:21:15.548Z,98779.63
2018-01-25T04:23:42.943Z,98776.41
2018-01-25T04:26:10.351Z,98771.87
2018-01-25T04:28:37.906Z,98782.33
2018-01-25T04:31:05.314Z,98782.67
2018-01-25T04:33:33.614Z,98781.78
2018-01-25T04:36:01.717Z,98776.05
2018-01-25T04:38:29.156Z,98775.22
2018-01-25T04:40:56.629Z,98772.34
2018-01-25T04:43:24.034Z,98772.41
2018-01-25T04:45:51.432Z,98775.08
2018-01-25T04:48:18.884Z,98779.75
2018-01-25T04:50:46.871Z,98779.20
2018-01-25T04:53:14.276Z,98784.03
2018-01-25T04:55:41.688Z,98778.44
2018-01-25T04:58:09.124Z,98781.11
2018-01-25T05:00:36.516Z,98775.09
2018-01-25T05:03:03.928Z,98772.42
2018-01-25T05:05:31.324Z,98781.01
2018-01-25T05:07:58.734Z,98780.34
2018-01-25T05:10:26.142Z,98778.42
2018-01-25T05:12:53.539Z,98776.64
2018-01-25T05:15:20.946Z,98769.94
2018-01-25T05:17:51.852Z,98763.73
2018-01-25T05:20:19.311Z,98760.32
2018-01-25T05:22:46.699Z,98758.71
2018-01-25T05:25:14.216Z,98766.28
2018-01-25T05:27:41.612Z,98760.27
2018-01-25T05:30:09.036Z,98761.11
2018-01-25T05:32:36.424Z,98763.61
2018-01-25T05:35:03.841Z,98767.05
2018-01-25T05:37:31.314Z,98765.55
2018-01-25T05:39:58.890Z,98778.06
2018-01-25T05:42:26.284Z,98774.93
2018-01-25T05:44:53.704Z,98768.60
2018-01-25T05:47:21.104Z,98766.72
2018-01-25T05:49:48.520Z,98767.77
2018-01-25T05:52:15.917Z,98766.96
2018-01-25T05:54:43.327Z,98769.15
2018-01-25T05:57:10.730Z,98769.94
2018-01-25T05:59:38.225Z,98768.48
2018-01-25T06:02:05.628Z,98766.84
2018-01-25T06:04:33.548Z,98767.31
2018-01-25T06:07:00.952Z,98773.17
2018-01-25T06:09:28.356Z,98775.63
2018-01-25T06:11:55.858Z,98774.19
2018-01-25T06:14:23.264Z,98775.45
2018-01-25T06:16:50.666Z,98781.14
2018-01-25T06:19:18.072Z,98780.16
2018-01-25T06:21:45.472Z,98786.99
2018-01-25T06:24:12.911Z,98790.80
2018-01-25T06:26:40.307Z,98788.52
2018-01-25T06:29:07.696Z,98785.00
2018-01-25T06:31:35.100Z,98790.66
2018-01-25T06:34:02.723Z,98792.98
2018-01-25T06:36:30.129Z,98790.41
2018-01-25T06:38:57.527Z,98784.27
2018-01-25T06:41:24.932Z,98782.37
2018-01-25T06:43:52.895Z,98791.19
2018-01-25T06:46:20.326Z,98796.41
2018-01-25T06:48:47.708Z,98791.89
2018-01-25T06:51:15.120Z,98796.08
2018-01-25T06:53:42.833Z,98789.61
2018-01-25T06:56:10.269Z,98797.44
2018-01-25T06:58:37.727Z,98795.16
2018-01-25T07:01:05.088Z,98797.45
2018-01-25T07:03:32.562Z,98791.33
2018-01-25T07:06:00.120Z,98792.73
2018-01-25T07:08:27.569Z,98789.23
2018-01-25T07:10:55.427Z,98788.94
2018-01-25T07:13:22.815Z,98786.58
2018-01-25T07:15:50.387Z,98788.66
2018-01-25T07:18:17.843Z,98788.73
2018-01-25T07:20:45.253Z,98786.52
2018-01-25T07:23:12.892Z,98788.15
2018-01-25T07:25:40.304Z,98785.98
2018-01-25T07:28:08.344Z,98784.86
2018-01-25T07:30:35.753Z,98784.27
2018-01-25T07:33:03.156Z,98783.72
2018-01-25T07:35:31.292Z,98791.30
2018-01-25T07:37:58.679Z,98781.16
2018-01-25T07:40:26.079Z,98775.53
2018-01-25T07:42:53.488Z,98769.56
2018-01-25T07:45:20.879Z,98767.67
2018-01-25T07:47:48.285Z,98770.20
2018-01-25T07:50:15.693Z,98761.89
2018-01-25T07:52:43.100Z,98761.48
2018-01-25T07:55:10.504Z,98763.72
2018-01-25T07:57:43.396Z,98766.77
2018-01-25T08:00:10.817Z,98758.34
2018-01-25T08:02:38.229Z,98764.86
2018-01-25T08:05:05.625Z,98763.12
2018-01-25T08:07:33.037Z,98769.78
2018-01-25T08:10:00.439Z,98767.20
2018-01-25T08:12:27.856Z,98764.41
2018-01-25T08:14:55.265Z,98772.76
2018-01-25T08:17:23.642Z,98768.69
2018-01-25T08:19:51.033Z,98768.35
2018-01-25T08:22:18.445Z,98767.59
2018-01-25T08:24:45.850Z,98765.65
2018-01-25T08:27:13.257Z,98760.52
2018-01-25T08:29:40.665Z,98760.82
2018-01-25T08:32:08.068Z,98754.97
2018-01-25T08:34:35.471Z,98758.19
2018-01-25T08:37:02.902Z,98763.35
2018-01-25T08:39:30.300Z,98765.59
2018-01-25T08:41:57.708Z,98759.03
2018-01-25T08:44:25.114Z,98765.43
2018-01-25T08:46:52.546Z,98766.66
2018-01-25T08:49:19.963Z,98771.40
2018-01-25T08:51:47.366Z,98771.28
2018-01-25T08:54:14.765Z,98761.23
2018-01-25T08:56:42.168Z,98768.47
2018-01-25T08:59:09.631Z,98759.44
2018-01-25T09:01:36.977Z,98765.83
2018-01-25T09:04:04.390Z,98761.28
2018-01-25T09:06:31.843Z,98759.30
2018-01-25T09:08:59.208Z,98758.52
2018-01-25T09:11:26.625Z,98761.88
2018-01-25T09:13:55.122Z,98757.05
2018-01-25T09:16:22.504Z,98758.93
2018-01-25T09:18:49.961Z,98763.12
2018-01-25T09:21:17.445Z,98756.90
2018-01-25T09:23:44.830Z,98761.27
2018-01-25T09:26:12.232Z,98755.24
2018-01-25T09:28:39.640Z,98756.05
2018-01-25T09:31:07.100Z,98756.03
2018-01-25T09:33:34.696Z,98753.02
2018-01-25T09:36:02.108Z,98756.60
2018-01-25T09:38:29.505Z,98751.95
2018-01-25T09:40:57.030Z,98755.89
2018-01-25T09:43:24.484Z,98757.07
2018-01-25T09:45:51.886Z,98757.34
2018-01-25T09:48:19.398Z,98750.43
2018-01-25T09:50:46.789Z,98748.55
2018-01-25T09:53:14.209Z,98750.47
2018-01-25T09:55:41.597Z,98748.98
2018-01-25T09:58:09.006Z,98750.08
2018-01-25T10:00:36.538Z,98751.64
2018-01-25T10:03:03.803Z,98750.78
2018-01-25T10:05:31.201Z,98752.16
2018-01-25T10:07:58.616Z,98753.00
2018-01-25T10:10:26.016Z,98751.16
2018-01-25T10:12:53.408Z,98748.30
2018-01-25T10:15:20.883Z,98742.86
2018-01-25T10:17:48.272Z,98737.73
2018-01-25T10:20:15.679Z,98731.75
2018-01-25T10:22:43.072Z,98732.06
2018-01-25T10:25:10.510Z,98735.71
2018-01-25T10:27:37.942Z,98732.97
2018-01-25T10:30:05.824Z,98733.28
2018-01-25T10:32:33.268Z,98726.83
2018-01-25T10:35:00.669Z,98730.62
2018-01-25T10:37:28.068Z,98729.11
2018-01-25T10:39:55.727Z,98723.52
2018-01-25T10:42:23.123Z,98727.65
2018-01-25T10:44:50.517Z,98719.77
2018-01-25T10:47:17.920Z,98721.72
2018-01-25T10:49:45.564Z,98713.70
2018-01-25T10:52:12.963Z,98721.39
2018-01-25T10:54:40.351Z,98710.89
2018-01-25T10:57:07.812Z,98710.24
2018-01-25T10:59:35.211Z,98708.54
2018-01-25T11:02:17.307Z,98705.17
2018-01-25T11:04:44.700Z,98715.38
2018-01-25T11:07:12.104Z,98701.27
2018-01-25T11:09:39.557Z,98703.13
2018-01-25T11:12:06.962Z,98705.35
2018-01-25T11:14:34.430Z,98698.42
2018-01-25T11:17:01.828Z,98697.23
2018-01-25T11:19:29.227Z,98696.89
2018-01-25T11:21:56.628Z,98690.09
2018-01-25T11:24:24.148Z,98681.24
2018-01-25T11:26:51.548Z,98671.16
2018-01-25T11:29:18.943Z,98670.24
2018-01-25T11:31:46.343Z,98669.55
2018-01-25T11:34:13.739Z,98658.01
2018-01-25T11:36:41.140Z,98653.47
2018-01-25T11:39:08.536Z,98654.64
2018-01-25T11:41:35.944Z,98646.84
2018-01-25T11:44:03.384Z,98636.31
2018-01-25T11:46:30.794Z,98633.77
2018-01-25T11:48:58.197Z,98635.98
2018-01-25T11:51:25.607Z,98628.87
2018-01-25T11:53:52.996Z,98633.05
2018-01-25T11:56:20.483Z,98630.84
2018-01-25T11:58:47.900Z,98631.97
2018-01-25T12:01:15.296Z,98636.20
2018-01-25T12:06:16.403Z,98623.56
2018-01-25T12:08:43.764Z,98627.84
2018-01-25T12:11:11.168Z,98620.65
2018-01-25T12:13:38.572Z,98612.77
2018-01-25T12:16:06.032Z,98608.31
2018-01-25T12:18:33.454Z,98603.63
2018-01-25T12:21:00.965Z,98607.55
2018-01-25T12:23:28.444Z,98609.00
2018-01-25T12:25:55.835Z,98604.81
2018-01-25T12:28:23.247Z,98598.31
2018-01-25T12:30:50.646Z,98591.39
2018-01-25T12:33:18.049Z,98584.47
2018-01-25T12:35:45.441Z,98575.27
2018-01-25T12:38:12.851Z,98572.16
2018-01-25T12:40:40.241Z,98574.29
2018-01-25T12:43:07.635Z,98573.88
2018-01-25T12:45:35.122Z,98570.22
2018-01-25T12:48:02.526Z,98561.56
2018-01-25T12:50:29.928Z,98564.26
2018-01-25T12:52:57.339Z,98562.31
2018-01-25T12:55:24.873Z,98548.17
2018-01-25T12:57:52.258Z,98548.54
2018-01-25T13:00:19.651Z,98542.70
2018-01-25T13:02:47.064Z,98544.61
2018-01-25T13:05:14.464Z,98544.67
2018-01-25T13:07:41.868Z,98538.88
2018-01-25T13:10:09.261Z,98541.97
2018-01-25T13:12:36.665Z,98535.97
2018-01-25T13:15:04.065Z,98529.06
2018-01-25T13:17:31.649Z,98529.48
2018-01-25T13:19:59.042Z,98531.33
2018-01-25T13:22:26.428Z,98524.81
2018-01-25T13:24:53.846Z,98528.70
2018-01-25T13:27:21.230Z,98526.33
2018-01-25T13:29:49.160Z,98521.36
2018-01-25T13:32:19.377Z,98518.40
2018-01-25T13:34:46.800Z,98519.67
2018-01-25T13:37:14.192Z,98515.93
2018-01-25T13:39:41.602Z,98517.98
2018-01-25T13:42:08.990Z,98513.03
2018-01-25T13:44:36.391Z,98505.38
2018-01-25T13:47:03.813Z,98504.98
2018-01-25T13:49:31.227Z,98502.38
2018-01-25T13:51:58.625Z,98497.38
2018-01-25T13:54:26.021Z,98491.89
2018-01-25T13:56:53.484Z,98496.69
2018-01-25T13:59:20.904Z,98495.99
2018-01-25T14:01:48.296Z,98484.70
2018-01-25T14:04:16.072Z,98496.58
2018-01-25T14:06:44.064Z,98490.88
2018-01-25T14:09:11.275Z,98489.91
2018-01-25T14:11:38.665Z,98487.66
2018-01-25T14:14:06.069Z,98486.28
2018-01-25T14:16:33.467Z,98480.20
2018-01-25T14:19:00.881Z,98480.20
2018-01-25T14:21:28.383Z,98475.71
2018-01-25T14:23:55.781Z,98477.99
2018-01-25T14:26:23.238Z,98480.83
2018-01-25T14:28:50.694Z,98479.25
2018-01-25T14:31:18.095Z,98481.95
2018-01-25T14:33:45.489Z,98484.33
2018-01-25T14:36:12.958Z,98473.17
2018-01-25T14:38:40.359Z,98483.01
2018-01-25T14:41:07.804Z,98481.95
2018-01-25T14:43:35.219Z,98483.69
2018-01-25T14:46:02.629Z,98478.72
2018-01-25T14:48:30.016Z,98485.02
2018-01-25T14:50:57.416Z,98490.85
2018-01-25T14:53:24.816Z,98492.17
2018-01-25T14:55:52.224Z,98488.84
2018-01-25T14:58:19.619Z,98487.38
2018-01-25T15:00:47.024Z,98491.37
2018-01-25T15:03:14.420Z,98491.67
2018-01-25T15:05:41.828Z,98491.19
2018-01-25T15:08:09.216Z,98484.77
2018-01-25T15:10:36.691Z,98488.66
2018-01-25T15:13:04.086Z,98488.62
2018-01-25T15:15:31.484Z,98486.86
2018-01-25T15:17:58.887Z,98487.95
2018-01-25T15:20:26.275Z,98490.59
2018-01-25T15:22:53.680Z,98488.91
2018-01-25T15:25:26.668Z,98490.88
2018-01-25T15:27:54.148Z,98496.29
2018-01-25T15:30:21.592Z,98486.88
2018-01-25T15:32:49.056Z,98495.55
2018-01-25T15:35:16.460Z,98496.16
2018-01-25T15:37:44.780Z,98498.34
2018-01-25T15:40:12.176Z,98495.88
2018-01-25T15:42:39.844Z,98499.97
2018-01-25T15:45:07.221Z,98505.16
2018-01-25T15:47:34.658Z,98510.30
2018-01-25T15:50:02.021Z,98496.14
2018-01-25T15:52:29.424Z,98496.04
2018-01-25T15:54:56.828Z,98501.88
2018-01-25T15:57:24.234Z,98499.16
2018-01-25T15:59:51.628Z,98496.09
2018-01-25T16:02:19.097Z,98499.62
2018-01-25T16:04:46.506Z,98501.70
2018-01-25T16:07:13.906Z,98495.50
2018-01-25T16:09:41.323Z,98496.48
2018-01-25T16:12:08.792Z,98497.91
2018-01-25T16:14:36.200Z,98487.30
2018-01-25T16:17:03.604Z,98483.02
2018-01-25T16:19:31.019Z,98484.58
2018-01-25T16:21:58.461Z,98486.04
2018-01-25T16:24:25.865Z,98485.17
2018-01-25T16:26:53.300Z,98482.38
2018-01-25T16:29:20.704Z,98482.56
2018-01-25T16:31:48.104Z,98478.42
2018-01-25T16:34:15.505Z,98483.77
2018-01-25T16:36:42.901Z,98474.09
2018-01-25T16:39:10.312Z,98476.77
2018-01-25T16:41:37.714Z,98483.97
2018-01-25T16:44:05.115Z,98477.67
2018-01-25T16:46:32.558Z,98480.27
2018-01-25T16:48:59.956Z,98477.83
2018-01-25T16:51:27.340Z,98477.83
2018-01-25T16:53:54.756Z,98481.12
2018-01-25T16:56:22.158Z,98482.34
2018-01-25T16:58:49.570Z,98481.22
2018-01-25T17:01:16.972Z,98478.63
2018-01-25T17:03:44.451Z,98479.23
2018-01-25T17:06:11.883Z,98478.06
2018-01-25T17:08:39.460Z,98476.14
2018-01-25T17:11:07.659Z,98475.95
2018-01-25T17:13:35.061Z,98484.45
2018-01-25T17:16:02.456Z,98479.09
2018-01-25T17:18:29.925Z,98481.36
2018-01-25T17:20:57.369Z,98477.85
2018-01-25T17:23:24.838Z,98483.59
2018-01-25T17:25:52.220Z,98488.42
2018-01-25T17:28:19.675Z,98486.23
2018-01-25T17:30:47.115Z,98489.02
2018-01-25T17:33:14.554Z,98486.36
2018-01-25T17:35:42.004Z,98491.41
2018-01-25T17:38:09.380Z,98484.28
2018-01-25T17:40:36.789Z,98484.63
2018-01-25T17:43:04.188Z,98495.53
2018-01-25T17:45:31.756Z,98494.84
2018-01-25T17:50:32.960Z,98493.46
2018-01-25T17:53:00.364Z,98496.91
2018-01-25T17:55:28.367Z,98496.69
2018-01-25T17:57:55.979Z,98500.13
2018-01-25T18:00:23.430Z,98498.58
2018-01-25T18:02:50.816Z,98492.70
2018-01-25T18:05:18.280Z,98496.80
2018-01-25T18:07:45.680Z,98502.94
2018-01-25T18:10:13.149Z,98506.18
2018-01-25T18:12:40.557Z,98509.95
2018-01-25T18:15:08.025Z,98509.91
2018-01-25T18:17:35.435Z,98512.02
2018-01-25T18:20:02.844Z,98508.69
2018-01-25T18:22:30.244Z,98511.92
2018-01-25T18:24:58.287Z,98511.27
2018-01-25T18:27:25.728Z,98516.02
2018-01-25T18:29:53.177Z,98513.03
2018-01-25T18:32:20.573Z,98514.27
2018-01-25T18:34:47.999Z,98506.84
2018-01-25T18:37:15.396Z,98504.94
2018-01-25T18:39:42.881Z,98501.34
2018-01-25T18:42:10.340Z,98496.59
2018-01-25T18:44:37.737Z,98501.99
2018-01-25T18:47:05.145Z,98499.60
2018-01-25T18:49:32.556Z,98498.53
2018-01-25T18:52:00.010Z,98497.77
2018-01-25T18:54:27.666Z,98499.12
2018-01-25T18:56:55.097Z,98502.49
2018-01-25T18:59:22.547Z,98495.67
2018-01-25T19:01:49.975Z,98498.72
2018-01-25T19:04:17.436Z,98500.22
2018-01-25T19:06:44.889Z,98502.17
2018-01-25T19:09:12.322Z,98497.42
2018-01-25T19:11:39.793Z,98494.37
2018-01-25T19:14:07.231Z,98500.86
2018-01-25T19:16:34.728Z,98500.64
2018-01-25T19:19:02.114Z,98502.74
2018-01-25T19:21:29.715Z,98505.95
2018-01-25T19:23:57.100Z,98512.20
2018-01-25T19:26:24.562Z,98504.94
2018-01-25T19:28:52.012Z,98503.84
2018-01-25T19:31:19.469Z,98505.13
2018-01-25T19:33:47.011Z,98509.52
2018-01-25T19:36:14.659Z,98506.26
2018-01-25T19:38:42.765Z,98501.83
2018-01-25T19:41:10.335Z,98504.80
2018-01-25T19:43:37.784Z,98498.80
2018-01-25T19:46:05.395Z,98487.16
2018-01-25T19:48:32.836Z,98482.69
2018-01-25T19:51:00.299Z,98485.88
2018-01-25T19:53:27.805Z,98482.55
2018-01-25T19:55:55.275Z,98488.93
2018-01-25T19:58:22.716Z,98481.14
2018-01-25T20:00:50.177Z,98488.13
2018-01-25T20:03:17.644Z,98487.77
2018-01-25T20:05:45.032Z,98484.42
2018-01-25T20:08:12.752Z,98485.56
2018-01-25T20:10:40.338Z,98487.70
2018-01-25T20:13:07.748Z,98486.17
2018-01-25T20:15:35.202Z,98478.09
2018-01-25T20:18:02.608Z,98470.02
2018-01-25T20:20:30.062Z,98472.59
2018-01-25T20:22:57.576Z,98461.76
2018-01-25T20:25:25.244Z,98469.60
2018-01-25T20:27:53.345Z,98461.00
2018-01-25T20:30:20.795Z,98452.61
2018-01-25T20:32:49.109Z,98454.45
2018-01-25T20:35:16.537Z,98457.16
2018-01-25T20:37:44.823Z,98454.67
2018-01-25T20:40:12.280Z,98457.16
2018-01-25T20:42:39.741Z,98454.77
2018-01-25T20:45:07.343Z,98450.02
2018-01-25T20:47:35.568Z,98444.67
2018-01-25T20:50:03.024Z,98458.41
2018-01-25T20:52:30.551Z,98457.80
2018-01-25T20:54:57.945Z,98456.78
2018-01-25T20:57:25.409Z,98464.91
2018-01-25T20:59:52.860Z,98458.75
2018-01-25T21:02:21.423Z,98462.60
2018-01-25T21:04:48.865Z,98465.41
2018-01-25T21:07:16.302Z,98464.70
2018-01-25T21:09:43.753Z,98465.52
2018-01-25T21:12:11.185Z,98462.78
2018-01-25T21:14:38.589Z,98462.75
2018-01-25T21:17:05.992Z,98464.86
2018-01-25T21:19:33.552Z,98464.20
2018-01-25T21:22:00.945Z,98470.28
2018-01-25T21:24:28.377Z,98469.53
2018-01-25T21:26:55.787Z,98472.05
2018-01-25T21:29:23.197Z,98472.98
2018-01-25T21:31:50.595Z,98469.45
2018-01-25T21:34:18.289Z,98464.74
2018-01-25T21:36:45.701Z,98472.03
2018-01-25T21:39:13.399Z,98469.07
2018-01-25T21:41:41.543Z,98466.03
2018-01-25T21:44:08.987Z,98469.35
2018-01-25T21:46:36.439Z,98478.94
2018-01-25T21:49:03.935Z,98469.04
2018-01-25T21:51:31.731Z,98476.91
2018-01-25T21:54:00.124Z,98478.18
2018-01-25T21:56:27.569Z,98482.11
2018-01-25T21:58:54.959Z,98476.85
2018-01-25T22:02:40.151Z,98482.25
2018-01-25T22:05:08.307Z,98478.05
2018-01-25T22:07:35.791Z,98481.45
2018-01-25T22:10:03.308Z,98482.61
2018-01-25T22:12:30.756Z,98482.61
2018-01-25T22:14:58.158Z,98472.56
2018-01-25T22:17:25.545Z,98470.86
2018-01-25T22:19:53.192Z,98469.36
2018-01-25T22:22:20.641Z,98468.87
2018-01-25T22:24:48.041Z,98465.89
2018-01-25T22:27:15.427Z,98466.66
2018-01-25T22:29:43.350Z,98469.17
2018-01-25T22:32:10.792Z,98465.84
2018-01-25T22:34:38.274Z,98471.06
2018-01-25T22:37:05.673Z,98471.44
2018-01-25T22:39:33.128Z,98464.98
2018-01-25T22:42:00.687Z,98475.73
2018-01-25T22:44:28.074Z,98471.37
2018-01-25T22:46:55.524Z,98474.20
2018-01-25T22:49:22.908Z,98471.80
2018-01-25T22:51:50.371Z,98472.88
2018-01-25T22:54:17.881Z,98472.52
2018-01-25T22:56:45.296Z,98479.66
2018-01-25T22:59:12.742Z,98480.37
2018-01-25T23:01:40.148Z,98482.52
2018-01-25T23:04:07.649Z,98485.95
2018-01-25T23:06:35.044Z,98486.93
2018-01-25T23:09:02.445Z,98483.49
2018-01-25T23:11:29.901Z,98482.90
2018-01-25T23:13:57.321Z,98481.73
2018-01-25T23:16:24.736Z,98484.83
2018-01-25T23:18:52.209Z,98483.28
2018-01-25T23:21:19.652Z,98478.16
2018-01-25T23:23:47.052Z,98477.78
2018-01-25T23:26:14.464Z,98482.91
2018-01-25T23:28:41.980Z,98475.58
2018-01-25T23:31:09.406Z,98479.72
2018-01-25T23:33:36.806Z,98476.70
2018-01-25T23:36:04.210Z,98478.66
2018-01-25T23:38:34.973Z,98475.53
2018-01-25T23:41:02.389Z,98473.92
2018-01-25T23:43:29.837Z,98475.38
2018-01-25T23:45:57.244Z,98479.21
2018-01-25T23:48:24.910Z,98475.25
2018-01-25T23:50:52.332Z,98471.69
2018-01-25T23:53:19.729Z,98467.74
2018-01-25T23:55:47.139Z,98473.47
2018-01-25T23:58:14.529Z,98470.64
